Airfield :
LOGIN :

Register | Disclaimer

   EN    FR    IT 

 










Legend :    VFR   Marginal VFR   IFR   Intensive IFR   Very Intensive IFR
Visi :
Ceiling :
>= 8 km
>= 3000ft
5 to 8 km
1000 to 3000 ft
1500m to 5 km
500 to 1000 ft
800 to 1500m
200 to 500 ft
< 800m
< 200 ft
Symbols :   Thunderstorms  Fog  Heavy snow  Heavy precipitations  Wind > 20 kt
SIGMETs :     Misc.  Thunderstorms  Icing  Turbulence  Mountain Waves  Volcanic Ashes






- Airport Elevation : 1674 ft
- IATA code : BRN


LSZB - Bern Belp

CURRENT METAR :
  • 052050Z AUTO VRB01KT 5000 FEW018 SCT024 BKN027 02/01 Q1033 RERASN

EXPIRED METARs :
  • 052020Z AUTO 10002KT 6000 BKN033 02/01 Q1033
  • 051950Z 12003KT 5000 FEW030 SCT042 OVC085 01/01 Q1033
  • 051920Z 00000KT 9999 FEW024 SCT030 BKN034 02/01 Q1033
  • 051850Z 03003KT 9999 BKN009 BKN011 02/01 Q1033
  • 051820Z 01004KT 320V070 9999 -RASN SCT009 BKN011 BKN013 02/01 Q1033

TAF TAF LSZB
Valid from the 05 at 15:00 until the 06 at 00:00 UTC


051425Z 0515/0524 VRB02KT 9999 BKN025
TEMPO 0515/0521 RA BKN014
PROB40
TEMPO 0520/0524 4000 RASN BKN008
ATIS : +41 22 417 40 76



MET'MAP, your aeronautical weather chart ! - Copyright ORBIFLY December 2007 - Disclaimer

ORBIFLY MET'MAP TEAM :

Programming & Development : Alexandra Zaïnal
Original concept : Baudouin d'Aumeries
Technical & hardware support : Manuel Goepfert
Assistance : Marc-Olivier Méhu




SOURCES & CREDITS :

   NOAA